createdAt,value
2022-12-08T00:00:06.683Z,16.00
2022-12-08T00:01:13.654Z,14.20
2022-12-08T00:01:47.290Z,15.10
2022-12-08T00:02:20.979Z,14.20
2022-12-08T00:02:54.639Z,15.30
2022-12-08T00:03:28.363Z,14.60
2022-12-08T00:04:04.392Z,15.30
2022-12-08T00:04:57.944Z,14.60
2022-12-08T00:05:50.360Z,14.70
2022-12-08T00:06:46.987Z,13.80
2022-12-08T00:07:39.324Z,14.00
2022-12-08T00:08:31.670Z,13.70
2022-12-08T00:09:23.236Z,13.90
2022-12-08T00:09:56.657Z,13.20
2022-12-08T00:11:23.749Z,14.00
2022-12-08T00:12:18.765Z,14.10
2022-12-08T00:12:52.170Z,12.40
2022-12-08T00:13:25.569Z,14.20
2022-12-08T00:13:59.188Z,14.40
2022-12-08T00:14:41.248Z,14.90
2022-12-08T00:15:14.964Z,13.90
2022-12-08T00:15:48.493Z,14.90
2022-12-08T00:16:22.320Z,13.60
2022-12-08T00:16:56.623Z,15.40
2022-12-08T00:17:30.063Z,14.50
2022-12-08T00:18:03.615Z,14.80
2022-12-08T00:18:37.330Z,14.20
2022-12-08T00:19:10.849Z,14.00
2022-12-08T00:19:45.440Z,14.40
2022-12-08T00:20:19.000Z,14.60
2022-12-08T00:20:58.805Z,14.60
2022-12-08T00:21:32.260Z,14.50
2022-12-08T00:22:07.257Z,15.20
2022-12-08T00:22:40.635Z,14.80
2022-12-08T00:23:14.092Z,14.30
2022-12-08T00:23:47.485Z,14.50
2022-12-08T00:24:22.470Z,14.60
2022-12-08T00:24:56.319Z,13.40
2022-12-08T00:25:32.254Z,14.40
2022-12-08T00:26:06.531Z,13.60
2022-12-08T00:26:40.217Z,14.00
2022-12-08T00:27:16.173Z,13.90
2022-12-08T00:27:50.479Z,13.40
2022-12-08T00:28:23.969Z,14.10
2022-12-08T00:28:57.789Z,14.00
2022-12-08T00:29:31.459Z,15.00
2022-12-08T00:30:05.882Z,15.00
2022-12-08T00:30:43.054Z,14.10
2022-12-08T00:31:19.539Z,14.40
2022-12-08T00:31:53.510Z,15.10
2022-12-08T00:32:28.061Z,15.90
2022-12-08T00:33:02.107Z,15.70
2022-12-08T00:33:35.914Z,15.50
2022-12-08T00:34:09.374Z,15.50
2022-12-08T00:34:42.795Z,15.40
2022-12-08T00:35:16.214Z,15.80
2022-12-08T00:35:49.626Z,15.20
2022-12-08T00:36:23.129Z,16.20
2022-12-08T00:36:56.554Z,16.30
2022-12-08T00:37:30.228Z,16.50
2022-12-08T00:38:03.755Z,16.30
2022-12-08T00:38:37.843Z,16.20
2022-12-08T00:39:13.040Z,16.00
2022-12-08T00:39:46.466Z,16.30
2022-12-08T00:40:19.875Z,16.20
2022-12-08T00:40:53.381Z,15.40
2022-12-08T00:41:46.839Z,16.00
2022-12-08T00:42:20.336Z,15.40
2022-12-08T00:42:53.922Z,15.80
2022-12-08T00:43:27.371Z,15.60
2022-12-08T00:44:00.818Z,15.80
2022-12-08T00:44:34.688Z,15.40
2022-12-08T00:45:08.459Z,15.10
2022-12-08T00:45:41.919Z,15.70
2022-12-08T00:46:15.373Z,15.40
2022-12-08T00:46:49.777Z,15.50
2022-12-08T00:47:24.948Z,16.00
2022-12-08T00:47:58.704Z,16.10
2022-12-08T00:48:32.431Z,15.20
2022-12-08T00:49:06.316Z,14.40
2022-12-08T00:49:40.213Z,15.10
2022-12-08T00:50:13.978Z,15.60
2022-12-08T00:50:47.356Z,14.80
2022-12-08T00:51:20.794Z,15.70
2022-12-08T00:51:54.226Z,15.00
2022-12-08T00:52:27.612Z,15.10
2022-12-08T00:53:00.994Z,14.50
2022-12-08T00:53:34.517Z,14.80
2022-12-08T00:54:07.985Z,15.20
2022-12-08T00:54:41.531Z,16.30
2022-12-08T00:55:15.038Z,15.80
2022-12-08T00:55:48.455Z,16.00
2022-12-08T00:56:21.872Z,16.80
2022-12-08T00:56:55.318Z,16.90
2022-12-08T00:57:28.625Z,16.60
2022-12-08T00:58:02.212Z,16.10
2022-12-08T00:58:35.699Z,16.40
2022-12-08T00:59:09.226Z,16.10
2022-12-08T00:59:42.603Z,15.90
2022-12-08T01:00:16.501Z,16.70
2022-12-08T01:00:49.961Z,16.10
2022-12-08T01:01:24.282Z,16.40
2022-12-08T01:01:57.788Z,16.70
2022-12-08T01:02:33.497Z,16.80
2022-12-08T01:03:06.989Z,16.60
2022-12-08T01:03:41.803Z,16.20
2022-12-08T01:04:17.555Z,17.10
2022-12-08T01:04:51.426Z,16.90
2022-12-08T01:05:24.764Z,16.20
2022-12-08T01:06:03.926Z,17.30
2022-12-08T01:06:38.125Z,16.90
2022-12-08T01:07:12.092Z,15.90
2022-12-08T01:07:45.563Z,17.00
2022-12-08T01:08:19.182Z,16.60
2022-12-08T01:08:52.757Z,16.40
2022-12-08T01:09:26.162Z,17.30
2022-12-08T01:10:00.668Z,17.40
2022-12-08T01:10:38.291Z,18.00
2022-12-08T01:11:15.908Z,17.20
2022-12-08T01:11:49.349Z,17.10
2022-12-08T01:12:23.229Z,18.00
2022-12-08T01:12:56.690Z,17.70
2022-12-08T01:13:30.205Z,18.00
2022-12-08T01:14:04.190Z,18.40
2022-12-08T01:14:37.774Z,17.80
2022-12-08T01:15:11.385Z,18.10
2022-12-08T01:15:45.017Z,18.70
2022-12-08T01:16:26.805Z,18.30
2022-12-08T01:17:00.326Z,17.10
2022-12-08T01:17:33.813Z,17.60
2022-12-08T01:18:07.184Z,18.10
2022-12-08T01:18:40.583Z,17.60
2022-12-08T01:19:16.400Z,18.40
2022-12-08T01:19:49.837Z,18.00
2022-12-08T01:20:23.250Z,17.90
2022-12-08T01:21:02.955Z,17.10
2022-12-08T01:21:36.337Z,18.10
2022-12-08T01:22:09.689Z,17.60
2022-12-08T01:22:43.119Z,17.70
2022-12-08T01:23:16.607Z,17.60
2022-12-08T01:23:50.008Z,17.30
2022-12-08T01:24:23.425Z,16.60
2022-12-08T01:24:56.964Z,18.20
2022-12-08T01:25:30.500Z,18.00
2022-12-08T01:26:08.792Z,18.50
2022-12-08T01:26:42.470Z,18.10
2022-12-08T01:27:17.725Z,17.70
2022-12-08T01:27:52.619Z,18.10
2022-12-08T01:28:25.999Z,18.40
2022-12-08T01:28:59.398Z,17.60
2022-12-08T01:29:32.871Z,17.90
2022-12-08T01:30:07.389Z,17.60
2022-12-08T01:30:41.282Z,18.10
2022-12-08T01:31:20.745Z,18.50
2022-12-08T01:31:54.180Z,17.90
2022-12-08T01:32:27.593Z,18.00
2022-12-08T01:33:02.143Z,19.10
2022-12-08T01:33:35.532Z,18.80
2022-12-08T01:34:09.199Z,18.90
2022-12-08T01:34:43.320Z,18.80
2022-12-08T01:35:16.832Z,18.40
2022-12-08T01:35:50.246Z,18.20
2022-12-08T01:36:29.005Z,18.60
2022-12-08T01:37:02.356Z,18.30
2022-12-08T01:37:35.809Z,18.50
2022-12-08T01:38:09.179Z,18.20
2022-12-08T01:38:42.555Z,18.90
2022-12-08T01:39:19.064Z,18.30
2022-12-08T01:39:52.477Z,17.70
2022-12-08T01:40:25.884Z,18.00
2022-12-08T01:40:59.462Z,18.90
2022-12-08T01:41:34.605Z,18.20
2022-12-08T01:42:20.158Z,18.70
2022-12-08T01:42:53.580Z,16.80
2022-12-08T01:44:04.215Z,18.00
2022-12-08T01:44:37.626Z,16.60
2022-12-08T01:45:22.605Z,16.50
2022-12-08T01:45:56.196Z,16.50
2022-12-08T01:46:32.593Z,16.40
2022-12-08T01:47:06.075Z,16.70
2022-12-08T01:47:46.906Z,17.40
2022-12-08T01:48:27.869Z,16.70
2022-12-08T01:49:36.656Z,14.90
2022-12-08T01:50:13.435Z,16.20
2022-12-08T01:50:49.215Z,16.00
2022-12-08T01:51:23.125Z,15.80
2022-12-08T01:52:14.512Z,16.30
2022-12-08T01:52:55.274Z,15.30
2022-12-08T01:53:32.980Z,15.00
2022-12-08T01:54:08.141Z,15.60
2022-12-08T01:55:06.568Z,16.80
2022-12-08T01:55:47.019Z,15.70
2022-12-08T01:56:36.770Z,16.80
2022-12-08T01:57:23.919Z,16.20
2022-12-08T01:58:05.660Z,16.20
2022-12-08T01:58:44.010Z,15.70
2022-12-08T01:59:18.153Z,17.60
2022-12-08T02:00:19.055Z,16.60
2022-12-08T02:00:53.209Z,16.50
2022-12-08T02:01:27.001Z,16.70
2022-12-08T02:02:00.869Z,16.90
2022-12-08T02:02:57.457Z,16.50
2022-12-08T02:03:49.295Z,15.70
2022-12-08T02:04:22.725Z,15.50
2022-12-08T02:04:56.221Z,17.40
2022-12-08T02:05:33.570Z,17.40
2022-12-08T02:06:07.684Z,17.60
2022-12-08T02:06:44.275Z,17.70
2022-12-08T02:07:18.775Z,17.70
2022-12-08T02:07:52.948Z,17.70
2022-12-08T02:08:27.095Z,17.90
2022-12-08T02:09:03.509Z,17.40
2022-12-08T02:09:38.590Z,16.30
2022-12-08T02:10:16.784Z,16.90
2022-12-08T02:10:53.008Z,16.90
2022-12-08T02:11:26.432Z,16.30
2022-12-08T02:12:00.960Z,16.80
2022-12-08T02:12:35.441Z,16.80
2022-12-08T02:13:15.040Z,17.20
2022-12-08T02:13:50.926Z,16.90
2022-12-08T02:14:25.516Z,16.50
2022-12-08T02:15:04.837Z,15.90
2022-12-08T02:15:44.713Z,14.50
2022-12-08T02:16:52.606Z,16.20
2022-12-08T02:17:42.350Z,15.10
2022-12-08T02:18:36.977Z,15.50
2022-12-08T02:19:36.449Z,15.30
2022-12-08T02:20:27.980Z,14.40
2022-12-08T02:21:14.300Z,14.30
2022-12-08T02:22:14.577Z,15.00
2022-12-08T02:23:33.478Z,15.00
2022-12-08T02:24:28.611Z,13.70
2022-12-08T02:25:23.560Z,14.50
2022-12-08T02:26:29.410Z,14.60
2022-12-08T02:27:27.203Z,14.90
2022-12-08T02:28:00.480Z,14.20
2022-12-08T02:28:55.210Z,15.00
2022-12-08T02:29:47.427Z,14.70
2022-12-08T02:30:23.655Z,15.40
2022-12-08T02:30:56.982Z,15.80
2022-12-08T02:32:11.526Z,15.30
2022-12-08T02:33:49.975Z,14.80
2022-12-08T02:34:51.160Z,13.60
2022-12-08T02:36:24.757Z,13.00
2022-12-08T02:37:17.046Z,14.70
2022-12-08T02:38:04.088Z,15.10
2022-12-08T02:38:52.340Z,14.90
2022-12-08T02:39:54.805Z,14.30
2022-12-08T02:40:35.524Z,15.00
2022-12-08T02:41:29.515Z,15.30
2022-12-08T02:42:02.923Z,14.90
2022-12-08T02:42:56.000Z,15.10
2022-12-08T02:43:43.361Z,13.90
2022-12-08T02:44:33.303Z,15.20
2022-12-08T02:45:15.154Z,15.60
2022-12-08T02:45:54.281Z,16.30
2022-12-08T02:46:35.775Z,15.50
2022-12-08T02:47:14.265Z,16.50
2022-12-08T02:47:48.200Z,15.70
2022-12-08T02:48:21.944Z,16.60
2022-12-08T02:48:57.528Z,17.30
2022-12-08T02:51:17.449Z,15.70
2022-12-08T02:51:50.839Z,16.70
2022-12-08T02:52:24.161Z,17.20
2022-12-08T02:52:57.581Z,17.40
2022-12-08T02:53:35.000Z,17.40
2022-12-08T02:54:09.391Z,17.80
2022-12-08T02:55:02.159Z,17.00
2022-12-08T02:55:50.894Z,17.00
2022-12-08T02:56:45.545Z,16.70
2022-12-08T02:57:33.173Z,16.50
2022-12-08T02:58:39.037Z,16.10
2022-12-08T02:59:43.806Z,15.00
2022-12-08T03:00:20.906Z,16.20
2022-12-08T03:01:12.965Z,17.30
2022-12-08T03:02:06.037Z,16.50
2022-12-08T03:02:50.397Z,17.00
2022-12-08T03:03:41.121Z,17.40
2022-12-08T03:04:20.646Z,17.20
2022-12-08T03:05:29.290Z,17.00
2022-12-08T03:06:17.175Z,15.50
2022-12-08T03:07:14.971Z,16.20
2022-12-08T03:07:58.485Z,15.50
2022-12-08T03:08:42.489Z,16.00
2022-12-08T03:09:30.994Z,15.90
2022-12-08T03:10:13.975Z,16.30
2022-12-08T03:11:30.403Z,16.40
2022-12-08T03:12:21.059Z,14.20
2022-12-08T03:13:08.250Z,15.60
2022-12-08T03:13:46.835Z,15.20
2022-12-08T03:14:22.335Z,15.40
2022-12-08T03:14:59.640Z,15.30
2022-12-08T03:15:35.655Z,16.20
2022-12-08T03:16:13.305Z,16.20
2022-12-08T03:16:52.195Z,15.80
2022-12-08T03:17:30.185Z,16.00
2022-12-08T03:18:06.812Z,15.80
2022-12-08T03:18:45.836Z,16.50
2022-12-08T03:19:23.610Z,16.20
2022-12-08T03:20:02.178Z,16.10
2022-12-08T03:20:36.431Z,17.10
2022-12-08T03:21:12.284Z,16.50
2022-12-08T03:21:50.919Z,16.60
2022-12-08T03:22:27.479Z,15.40
2022-12-08T03:23:05.230Z,16.40
2022-12-08T03:23:39.700Z,15.30
2022-12-08T03:24:15.588Z,16.60
2022-12-08T03:24:49.828Z,16.80
2022-12-08T03:25:25.666Z,16.40
2022-12-08T03:26:08.770Z,16.00
2022-12-08T03:26:49.165Z,15.80
2022-12-08T03:27:28.980Z,16.20
2022-12-08T03:28:02.882Z,16.90
2022-12-08T03:28:36.463Z,17.20
2022-12-08T03:29:10.947Z,17.60
2022-12-08T03:29:44.395Z,17.30
2022-12-08T03:30:18.709Z,17.50
2022-12-08T03:30:56.031Z,17.40
2022-12-08T03:31:33.361Z,18.30
2022-12-08T03:32:16.376Z,16.70
2022-12-08T03:32:53.571Z,16.80
2022-12-08T03:33:33.220Z,16.80
2022-12-08T03:34:08.221Z,17.30
2022-12-08T03:34:44.560Z,16.70
2022-12-08T03:35:23.499Z,16.50
2022-12-08T03:35:58.865Z,17.60
2022-12-08T03:36:32.665Z,16.80
2022-12-08T03:37:06.489Z,16.50
2022-12-08T03:37:41.241Z,16.50
2022-12-08T03:38:16.955Z,17.50
2022-12-08T03:38:53.116Z,17.60
2022-12-08T03:39:26.590Z,17.50
2022-12-08T03:39:59.991Z,18.30
2022-12-08T03:40:33.643Z,18.80
2022-12-08T03:41:19.707Z,18.20
2022-12-08T03:41:53.245Z,17.60
2022-12-08T03:42:26.784Z,18.10
2022-12-08T03:43:00.624Z,17.30
2022-12-08T03:43:34.226Z,18.20
2022-12-08T03:44:07.735Z,18.10
2022-12-08T03:44:41.210Z,18.30
2022-12-08T03:45:14.735Z,18.70
2022-12-08T03:45:48.240Z,19.10
2022-12-08T03:46:56.593Z,19.50
2022-12-08T03:47:30.666Z,20.30
2022-12-08T03:48:04.171Z,19.80
2022-12-08T03:48:37.647Z,19.80
2022-12-08T03:49:11.036Z,19.90
2022-12-08T03:49:44.335Z,20.00
2022-12-08T03:50:17.810Z,20.90
2022-12-08T03:50:51.245Z,20.60
2022-12-08T03:51:25.377Z,20.00
2022-12-08T03:51:58.708Z,18.60
2022-12-08T03:52:32.090Z,18.90
2022-12-08T03:53:05.412Z,18.20
2022-12-08T03:53:39.326Z,17.20
2022-12-08T03:54:12.732Z,16.80
2022-12-08T03:54:46.240Z,16.40
2022-12-08T03:55:19.580Z,16.80
2022-12-08T03:55:54.188Z,17.30
2022-12-08T03:56:34.099Z,16.60
2022-12-08T03:57:07.503Z,16.10
2022-12-08T03:57:41.385Z,14.20
2022-12-08T03:58:14.926Z,17.50
2022-12-08T03:58:48.281Z,18.60
2022-12-08T03:59:21.746Z,18.60
2022-12-08T03:59:55.140Z,18.70
2022-12-08T04:00:28.522Z,17.90
2022-12-08T04:01:01.874Z,18.20
2022-12-08T04:01:35.385Z,18.40
2022-12-08T04:02:08.824Z,18.50
2022-12-08T04:02:42.283Z,18.90
2022-12-08T04:03:16.007Z,19.30
2022-12-08T04:03:49.876Z,19.20
2022-12-08T04:04:23.318Z,19.10
2022-12-08T04:04:56.785Z,17.80
2022-12-08T04:05:30.175Z,18.90
2022-12-08T04:06:03.580Z,18.30
2022-12-08T04:06:37.032Z,17.50
2022-12-08T04:07:10.446Z,17.70
2022-12-08T04:07:44.089Z,17.30
2022-12-08T04:08:17.717Z,16.80
2022-12-08T04:08:51.809Z,16.40
2022-12-08T04:09:25.377Z,16.30
2022-12-08T04:09:58.726Z,15.90
2022-12-08T04:10:32.325Z,16.30
2022-12-08T04:11:06.803Z,16.00
2022-12-08T04:11:40.218Z,16.20
2022-12-08T04:12:13.581Z,17.00
2022-12-08T04:12:46.981Z,17.50
2022-12-08T04:13:20.386Z,16.70
2022-12-08T04:13:53.710Z,16.30
2022-12-08T04:14:27.175Z,17.30
2022-12-08T04:15:00.540Z,15.80
2022-12-08T04:15:36.410Z,16.30
2022-12-08T04:16:14.961Z,15.40
2022-12-08T04:16:48.360Z,14.90
2022-12-08T04:17:21.805Z,15.30
2022-12-08T04:17:55.284Z,15.50
2022-12-08T04:18:29.192Z,15.50
2022-12-08T04:19:02.611Z,15.60
2022-12-08T04:19:36.105Z,15.70
2022-12-08T04:20:09.955Z,16.20
2022-12-08T04:20:45.088Z,15.20
2022-12-08T04:21:18.522Z,15.20
2022-12-08T04:21:51.914Z,15.90
2022-12-08T04:22:25.318Z,16.70
2022-12-08T04:22:58.841Z,15.60
2022-12-08T04:23:32.348Z,15.70
2022-12-08T04:24:05.976Z,15.30
2022-12-08T04:24:39.635Z,16.20
2022-12-08T04:25:13.247Z,16.50
2022-12-08T04:25:46.713Z,16.30
2022-12-08T04:26:20.352Z,15.90
2022-12-08T04:26:53.741Z,15.20
2022-12-08T04:27:27.277Z,15.40
2022-12-08T04:28:00.675Z,15.80
2022-12-08T04:28:34.517Z,15.60
2022-12-08T04:29:07.963Z,15.20
2022-12-08T04:29:41.406Z,15.40
2022-12-08T04:30:15.087Z,15.80
2022-12-08T04:30:49.853Z,14.10
2022-12-08T04:31:23.333Z,15.30
2022-12-08T04:31:56.882Z,14.40
2022-12-08T04:32:30.321Z,14.80
2022-12-08T04:33:06.650Z,15.00
2022-12-08T04:33:40.164Z,14.30
2022-12-08T04:34:13.574Z,14.80
2022-12-08T04:34:46.928Z,14.70
2022-12-08T04:35:20.446Z,15.30
2022-12-08T04:35:53.864Z,14.90
2022-12-08T04:36:27.335Z,14.00
2022-12-08T04:37:00.659Z,14.50
2022-12-08T04:37:34.091Z,15.50
2022-12-08T04:38:07.516Z,15.60
2022-12-08T04:38:41.031Z,14.60
2022-12-08T04:39:14.396Z,15.40
2022-12-08T04:39:47.791Z,15.40
2022-12-08T04:40:21.237Z,14.40
2022-12-08T04:40:54.730Z,15.00
2022-12-08T04:41:28.172Z,15.30
2022-12-08T04:42:01.589Z,15.20
2022-12-08T04:42:34.961Z,15.60
2022-12-08T04:43:08.570Z,15.30
2022-12-08T04:43:44.606Z,16.20
2022-12-08T04:44:18.030Z,15.00
2022-12-08T04:44:51.419Z,15.30
2022-12-08T04:45:24.835Z,16.50
2022-12-08T04:45:58.150Z,16.90
2022-12-08T04:46:31.762Z,16.10
2022-12-08T04:47:05.253Z,16.40
2022-12-08T04:47:38.801Z,15.80
2022-12-08T04:48:15.172Z,16.70
2022-12-08T04:48:48.960Z,15.70
2022-12-08T04:49:22.401Z,16.50
2022-12-08T04:49:55.965Z,16.40
2022-12-08T04:50:29.378Z,16.30
2022-12-08T04:51:02.806Z,16.20
2022-12-08T04:51:36.152Z,16.70
2022-12-08T04:52:09.619Z,16.30
2022-12-08T04:52:43.105Z,16.40
2022-12-08T04:53:16.720Z,15.40
2022-12-08T04:53:50.176Z,15.80
2022-12-08T04:54:23.563Z,15.80
2022-12-08T04:54:56.975Z,16.20
2022-12-08T04:55:30.340Z,15.90
2022-12-08T04:56:03.874Z,15.10
2022-12-08T04:56:37.750Z,15.30
2022-12-08T04:57:11.105Z,16.00
2022-12-08T04:57:44.590Z,15.80
2022-12-08T04:58:21.439Z,15.80
2022-12-08T04:58:55.328Z,14.80
2022-12-08T04:59:29.210Z,15.60
2022-12-08T05:00:03.039Z,16.30
2022-12-08T05:00:36.976Z,16.00
2022-12-08T05:01:10.687Z,15.10
2022-12-08T05:01:44.447Z,15.80
2022-12-08T05:02:18.199Z,15.90
2022-12-08T05:02:51.928Z,16.00
2022-12-08T05:03:28.710Z,16.10
2022-12-08T05:04:02.287Z,16.70
2022-12-08T05:04:35.940Z,17.40
2022-12-08T05:05:12.216Z,17.70
2022-12-08T05:05:46.763Z,17.30
2022-12-08T05:06:20.222Z,17.40
2022-12-08T05:06:53.897Z,17.50
2022-12-08T05:07:27.569Z,17.20
2022-12-08T05:08:01.016Z,17.50
2022-12-08T05:08:34.587Z,17.10
2022-12-08T05:09:08.030Z,15.90
2022-12-08T05:09:41.467Z,16.10
2022-12-08T05:10:14.920Z,16.10
2022-12-08T05:10:48.304Z,16.40
2022-12-08T05:11:21.770Z,16.10
2022-12-08T05:11:55.345Z,16.30
2022-12-08T05:12:28.745Z,15.90
2022-12-08T05:13:02.193Z,16.00
2022-12-08T05:13:35.756Z,15.30
2022-12-08T05:14:12.275Z,15.00
2022-12-08T05:14:51.215Z,14.80
2022-12-08T05:15:24.649Z,15.10
2022-12-08T05:16:06.930Z,14.50
2022-12-08T05:16:40.393Z,14.80
2022-12-08T05:17:14.840Z,14.00
2022-12-08T05:17:48.180Z,13.30
2022-12-08T05:18:21.508Z,14.10
2022-12-08T05:18:54.813Z,13.50
2022-12-08T05:19:28.132Z,13.80
2022-12-08T05:20:01.786Z,13.50
2022-12-08T05:20:36.051Z,13.20
2022-12-08T05:21:09.996Z,13.50
2022-12-08T05:21:43.815Z,14.20
2022-12-08T05:22:17.305Z,14.10
2022-12-08T05:22:50.684Z,13.80
2022-12-08T05:23:24.057Z,14.60
2022-12-08T05:23:57.420Z,14.40
2022-12-08T05:24:30.778Z,14.90
2022-12-08T05:25:04.492Z,14.50
2022-12-08T05:25:38.017Z,14.70
2022-12-08T05:26:11.542Z,14.50
2022-12-08T05:26:45.045Z,14.20
2022-12-08T05:27:18.406Z,14.80
2022-12-08T05:27:55.300Z,15.40
2022-12-08T05:28:43.508Z,14.20
2022-12-08T05:29:17.405Z,14.20
2022-12-08T05:29:50.772Z,14.90
2022-12-08T05:30:24.385Z,15.80
2022-12-08T05:30:57.853Z,15.30
2022-12-08T05:31:31.543Z,14.30
2022-12-08T05:32:05.270Z,14.90
2022-12-08T05:32:38.777Z,15.90
2022-12-08T05:33:12.264Z,15.40
2022-12-08T05:33:46.320Z,15.00
2022-12-08T05:34:19.716Z,15.70
2022-12-08T05:34:53.175Z,16.00
2022-12-08T05:35:26.580Z,14.90
2022-12-08T05:36:00.426Z,15.60
2022-12-08T05:36:33.845Z,16.30
2022-12-08T05:37:07.212Z,15.60
2022-12-08T05:37:40.635Z,15.50
2022-12-08T05:38:14.070Z,16.10
2022-12-08T05:38:47.515Z,15.40
2022-12-08T05:39:20.951Z,15.70
2022-12-08T05:39:54.468Z,15.70
2022-12-08T05:40:27.839Z,14.60
2022-12-08T05:41:01.306Z,16.20
2022-12-08T05:41:34.676Z,14.90
2022-12-08T05:42:08.027Z,15.80
2022-12-08T05:42:41.448Z,16.00
2022-12-08T05:43:15.425Z,15.90
2022-12-08T05:43:49.574Z,15.70
2022-12-08T05:44:23.035Z,15.90
2022-12-08T05:44:56.483Z,16.50
2022-12-08T05:45:29.918Z,15.50
2022-12-08T05:46:03.528Z,16.10
2022-12-08T05:46:37.442Z,15.70
2022-12-08T05:47:10.887Z,15.80
2022-12-08T05:47:44.473Z,15.60
2022-12-08T05:48:17.904Z,15.80
2022-12-08T05:48:51.285Z,16.40
2022-12-08T05:49:24.675Z,16.30
2022-12-08T05:49:58.125Z,16.40
2022-12-08T05:50:33.342Z,16.50
2022-12-08T05:51:28.591Z,16.70
2022-12-08T05:52:02.063Z,15.70
2022-12-08T05:52:35.388Z,15.60
2022-12-08T05:53:08.817Z,15.60
2022-12-08T05:53:42.214Z,15.90
2022-12-08T05:54:15.813Z,16.10
2022-12-08T05:54:49.199Z,15.30
2022-12-08T05:55:22.726Z,15.70
2022-12-08T05:55:56.277Z,15.20
2022-12-08T05:56:29.654Z,16.60
2022-12-08T05:57:03.081Z,15.70
2022-12-08T05:57:36.416Z,15.60
2022-12-08T05:58:13.452Z,16.50
2022-12-08T05:58:48.114Z,15.10
2022-12-08T05:59:21.603Z,16.00
2022-12-08T05:59:55.015Z,15.10
2022-12-08T06:00:28.476Z,15.50
2022-12-08T06:01:01.944Z,15.50
2022-12-08T06:01:35.487Z,15.60
2022-12-08T06:02:09.114Z,15.60
2022-12-08T06:02:42.787Z,15.80
2022-12-08T06:03:18.262Z,16.50
2022-12-08T06:03:52.367Z,15.70
2022-12-08T06:04:25.777Z,15.40
2022-12-08T06:04:59.137Z,16.20
2022-12-08T06:05:34.249Z,15.00
2022-12-08T06:06:07.664Z,16.20
2022-12-08T06:06:41.181Z,15.90
2022-12-08T06:07:16.296Z,15.60
2022-12-08T06:07:49.827Z,15.10
2022-12-08T06:08:23.336Z,15.20
2022-12-08T06:08:56.821Z,15.40
2022-12-08T06:09:30.303Z,16.00
2022-12-08T06:10:04.991Z,15.50
2022-12-08T06:10:40.125Z,16.10
2022-12-08T06:11:25.287Z,15.70
2022-12-08T06:11:58.740Z,15.00
2022-12-08T06:12:32.175Z,15.00
2022-12-08T06:13:05.790Z,14.80
2022-12-08T06:13:39.140Z,14.90
2022-12-08T06:14:12.970Z,15.20
2022-12-08T06:14:46.328Z,15.50
2022-12-08T06:15:19.845Z,16.10
2022-12-08T06:15:53.309Z,15.20
2022-12-08T06:16:28.563Z,15.80
2022-12-08T06:17:02.128Z,15.70
2022-12-08T06:17:35.621Z,15.50
2022-12-08T06:18:10.440Z,15.40
2022-12-08T06:18:44.464Z,15.80
2022-12-08T06:19:17.882Z,15.80
2022-12-08T06:19:51.212Z,15.00
2022-12-08T06:20:24.604Z,15.40
2022-12-08T06:21:10.054Z,15.20
2022-12-08T06:21:43.577Z,15.30
2022-12-08T06:22:16.925Z,15.40
2022-12-08T06:22:50.285Z,15.80
2022-12-08T06:23:23.678Z,15.40
2022-12-08T06:23:57.090Z,15.80
2022-12-08T06:24:30.654Z,15.70
2022-12-08T06:25:07.292Z,15.70
2022-12-08T06:25:43.228Z,15.00
2022-12-08T06:26:17.838Z,15.40
2022-12-08T06:26:51.241Z,16.00
2022-12-08T06:27:26.926Z,16.70
2022-12-08T06:28:00.360Z,15.10
2022-12-08T06:28:34.107Z,15.60
2022-12-08T06:29:08.082Z,15.70
2022-12-08T06:29:41.557Z,15.90
2022-12-08T06:30:15.328Z,15.80
2022-12-08T06:30:48.724Z,15.60
2022-12-08T06:31:26.596Z,16.80
2022-12-08T06:32:00.153Z,14.90
2022-12-08T06:32:33.612Z,15.20
2022-12-08T06:33:06.980Z,16.20
2022-12-08T06:33:40.705Z,16.20
2022-12-08T06:34:14.105Z,15.10
2022-12-08T06:34:47.572Z,15.70
2022-12-08T06:35:21.160Z,15.30
2022-12-08T06:35:54.591Z,15.70
2022-12-08T06:36:28.811Z,16.20
2022-12-08T06:37:02.255Z,15.70
2022-12-08T06:37:35.650Z,16.30
2022-12-08T06:38:09.080Z,15.60
2022-12-08T06:38:43.993Z,15.60
2022-12-08T06:39:17.663Z,16.20
2022-12-08T06:39:52.000Z,16.20
2022-12-08T06:40:25.351Z,16.10
2022-12-08T06:40:59.588Z,16.20
2022-12-08T06:41:33.012Z,16.60
2022-12-08T06:42:25.189Z,16.60
2022-12-08T06:42:58.527Z,15.50
2022-12-08T06:43:33.320Z,15.90
2022-12-08T06:44:06.713Z,15.60
2022-12-08T06:44:40.591Z,16.40
2022-12-08T06:45:18.373Z,15.70
2022-12-08T06:45:52.658Z,15.90
2022-12-08T06:46:26.689Z,16.00
2022-12-08T06:47:00.177Z,16.80
2022-12-08T06:47:34.028Z,16.90
2022-12-08T06:48:07.539Z,16.80
2022-12-08T06:48:41.687Z,17.20
2022-12-08T06:49:15.446Z,16.70
2022-12-08T06:49:48.979Z,16.00
2022-12-08T06:50:22.371Z,16.50
2022-12-08T06:50:56.021Z,15.80
2022-12-08T06:51:29.418Z,17.10
2022-12-08T06:52:02.872Z,16.40
2022-12-08T06:52:43.212Z,16.40
2022-12-08T06:53:21.285Z,15.70
2022-12-08T06:53:54.832Z,17.10
2022-12-08T06:54:28.328Z,16.30
2022-12-08T06:55:01.750Z,17.00
2022-12-08T06:56:30.276Z,16.30
2022-12-08T06:57:04.772Z,16.60
2022-12-08T06:57:38.343Z,17.50
2022-12-08T06:58:13.558Z,17.80
2022-12-08T06:58:52.097Z,17.80
2022-12-08T06:59:26.384Z,17.70
2022-12-08T06:59:59.821Z,16.20
2022-12-08T07:00:33.225Z,17.30
2022-12-08T07:01:12.262Z,17.00
2022-12-08T07:01:46.697Z,16.70
2022-12-08T07:02:20.805Z,16.00
2022-12-08T07:02:54.451Z,16.60
2022-12-08T07:03:27.821Z,16.30
2022-12-08T07:04:01.193Z,16.90
2022-12-08T07:04:34.611Z,16.50
2022-12-08T07:05:08.085Z,17.30
2022-12-08T07:05:41.652Z,16.80
2022-12-08T07:06:18.755Z,17.70
2022-12-08T07:06:52.274Z,17.60
2022-12-08T07:07:25.825Z,18.10
2022-12-08T07:07:59.358Z,16.70
2022-12-08T07:08:34.918Z,17.80
2022-12-08T07:09:08.514Z,17.60
2022-12-08T07:09:41.942Z,16.70
2022-12-08T07:10:15.449Z,16.00
2022-12-08T07:10:48.859Z,16.60
2022-12-08T07:11:22.818Z,16.70
2022-12-08T07:11:56.335Z,16.70
2022-12-08T07:12:29.616Z,16.40
2022-12-08T07:13:03.041Z,15.40
2022-12-08T07:13:36.517Z,15.40
2022-12-08T07:14:11.030Z,15.00
2022-12-08T07:14:44.586Z,15.60
2022-12-08T07:15:18.195Z,14.80
2022-12-08T07:15:51.677Z,15.30
2022-12-08T07:16:25.137Z,16.40
2022-12-08T07:16:58.748Z,15.60
2022-12-08T07:17:32.166Z,15.70
2022-12-08T07:18:05.669Z,14.90
2022-12-08T07:18:39.461Z,15.20
2022-12-08T07:19:12.851Z,15.40
2022-12-08T07:19:46.318Z,16.20
2022-12-08T07:20:19.762Z,15.00
2022-12-08T07:20:53.135Z,15.80
2022-12-08T07:21:26.631Z,16.40
2022-12-08T07:21:59.964Z,16.40
2022-12-08T07:22:33.300Z,17.70
2022-12-08T07:23:06.811Z,16.70
2022-12-08T07:23:40.317Z,16.60
2022-12-08T07:24:13.987Z,17.10
2022-12-08T07:24:47.407Z,16.20
2022-12-08T07:25:21.634Z,16.60
2022-12-08T07:25:55.139Z,16.10
2022-12-08T07:26:28.640Z,16.20
2022-12-08T07:27:02.128Z,16.20
2022-12-08T07:27:35.565Z,15.10
2022-12-08T07:28:10.842Z,16.10
2022-12-08T07:28:44.761Z,16.00
2022-12-08T07:29:21.717Z,15.80
2022-12-08T07:29:58.270Z,15.80
2022-12-08T07:30:31.744Z,16.30
2022-12-08T07:31:07.193Z,16.90
2022-12-08T07:31:40.665Z,17.60
2022-12-08T07:32:14.254Z,17.20
2022-12-08T07:32:47.762Z,17.90
2022-12-08T07:33:21.180Z,17.90
2022-12-08T07:33:55.856Z,17.40
2022-12-08T07:34:29.426Z,18.90
2022-12-08T07:35:02.840Z,18.30
2022-12-08T07:35:36.332Z,18.70
2022-12-08T07:36:09.911Z,19.00
2022-12-08T07:36:43.369Z,18.40
2022-12-08T07:37:16.890Z,19.20
2022-12-08T07:37:50.344Z,17.80
2022-12-08T07:38:24.331Z,18.00
2022-12-08T07:38:57.828Z,17.90
2022-12-08T07:39:31.279Z,17.50
2022-12-08T07:40:07.072Z,17.70
2022-12-08T07:40:40.906Z,18.00
2022-12-08T07:41:18.761Z,17.50
2022-12-08T07:41:52.216Z,17.30
2022-12-08T07:42:25.645Z,17.70
2022-12-08T07:42:59.208Z,17.60
2022-12-08T07:43:33.036Z,18.00
2022-12-08T07:44:06.470Z,17.60
2022-12-08T07:44:39.883Z,17.90
2022-12-08T07:45:13.490Z,18.00
2022-12-08T07:45:47.278Z,17.70
2022-12-08T07:46:23.009Z,17.40
2022-12-08T07:46:56.403Z,16.70
2022-12-08T07:47:29.759Z,17.40
2022-12-08T07:48:03.202Z,16.00
2022-12-08T07:48:36.545Z,17.30
2022-12-08T07:49:09.862Z,16.70
2022-12-08T07:49:43.375Z,16.70
2022-12-08T07:50:16.986Z,16.60
2022-12-08T07:50:50.441Z,17.00
2022-12-08T07:51:25.221Z,15.90